KNEL/NEL METAR and TAF weather

Enter ICAO airport designator
Station Type Date Time Source
KNEL METAR 2019/06/26 16:00 UTC NOAA

KNEL 261600Z 34005KT 10SM CLR 29/16 A3004 RMK AO2 SLP169 T02940161 $


Station Type Date Time Source
KNEL Decoded METAR 2019/06/26 16:00 UTC NOAA

Lakehurst Naval Air Station, NJ, United States (KNEL) 40-02N 074-19W 24M
Jun 26, 2019 - 12:00 PM EDT / 2019.06.26 1600 UTC
Wind: from the NNW (340 degrees) at 6 MPH (5 KT):0
Visibility: 10 mile(s):0
Sky conditions: clear
Temperature: 84.9 F (29.4 C)
Dew Point: 61.0 F (16.1 C)
Relative Humidity: 44%
Pressure (altimeter): 30.04 in. Hg (1017 hPa)
ob: KNEL 261600Z 34005KT 10SM CLR 29/16 A3004 RMK AO2 SLP169 T02940161
cycle: 16

Station Type Date Time Source
KNEL TAF UTC NOAA

Error!

Example: see airport list